DLH2UT LIRN-EDDM
Flight info
| Callsign | DLH2UT |
|---|---|
| Flight time | 1h 25m |
| Altitude | 38000 |
| Route | ALAXI DCT INSOX DCT SUMIR DCT NAXAV DCT SOTOV/N0375F240 T101 BETOS BETOS1B |
| Aircraft | A320/M-SDE3FGHIRWY/LB1 |
Departure
| Time | 2026-05-07 11:45 |
|---|---|
| Airport | Naples International Airport (LIRN) |
Arrival
| Time | 2026-05-07 13:10 |
|---|---|
| Airport | Munich Airport (EDDM) |
| Time | Latitude | Longitude | Altitude | Speed | Heading |
|---|---|---|---|---|---|
| 2026-05-07 11:18 | 40.87869 | 14.28341 | 305 ft | 0 kts | 187° |
| 2026-05-07 11:37 | 40.87888 | 14.28345 | 313 ft | 4 kts | 194° |
| 2026-05-07 11:37 | 40.87913 | 14.28356 | 300 ft | 4 kts | 208° |
| 2026-05-07 11:37 | 40.87934 | 14.28377 | 301 ft | 4 kts | 239° |
| 2026-05-07 11:37 | 40.87939 | 14.28399 | 300 ft | 0 kts | 278° |
| 2026-05-07 11:38 | 40.87939 | 14.28400 | 300 ft | 0 kts | 278° |
| 2026-05-07 11:40 | 40.87939 | 14.28399 | 300 ft | 0 kts | 278° |
| 2026-05-07 11:40 | 40.87951 | 14.28283 | 303 ft | 13 kts | 276° |
| 2026-05-07 11:40 | 40.87960 | 14.28176 | 306 ft | 11 kts | 277° |
| 2026-05-07 11:41 | 40.88024 | 14.28144 | 305 ft | 14 kts | 39° |
| 2026-05-07 11:41 | 40.88066 | 14.28278 | 301 ft | 18 kts | 98° |
| 2026-05-07 11:41 | 40.88050 | 14.28456 | 296 ft | 22 kts | 98° |
| 2026-05-07 11:41 | 40.88041 | 14.28600 | 295 ft | 24 kts | 79° |
| 2026-05-07 11:42 | 40.88129 | 14.28752 | 286 ft | 21 kts | 56° |
| 2026-05-07 11:42 | 40.88229 | 14.28924 | 281 ft | 26 kts | 53° |
| 2026-05-07 11:42 | 40.88347 | 14.29127 | 271 ft | 31 kts | 53° |
| 2026-05-07 11:42 | 40.88484 | 14.29366 | 262 ft | 35 kts | 52° |
| 2026-05-07 11:43 | 40.88638 | 14.29634 | 251 ft | 38 kts | 53° |
| 2026-05-07 11:43 | 40.88806 | 14.29926 | 240 ft | 41 kts | 53° |
| 2026-05-07 11:43 | 40.88972 | 14.30213 | 228 ft | 21 kts | 52° |
| 2026-05-07 11:43 | 40.89059 | 14.30244 | 225 ft | 13 kts | 327° |
| 2026-05-07 11:44 | 40.89118 | 14.30173 | 225 ft | 10 kts | 276° |
| 2026-05-07 11:44 | 40.89092 | 14.30109 | 229 ft | 12 kts | 237° |
| 2026-05-07 11:44 | 40.88921 | 14.29749 | 244 ft | 84 kts | 238° |
| 2026-05-07 11:44 | 40.88494 | 14.28848 | 280 ft | 144 kts | 238° |
| 2026-05-07 11:45 | 40.87924 | 14.27629 | 769 ft | 158 kts | 237° |
| 2026-05-07 11:45 | 40.87109 | 14.26668 | 1435 ft | 166 kts | 201° |
| 2026-05-07 11:45 | 40.85910 | 14.26528 | 1838 ft | 186 kts | 172° |
| 2026-05-07 11:45 | 40.84597 | 14.26738 | 2449 ft | 192 kts | 173° |
| 2026-05-07 11:46 | 40.83258 | 14.26935 | 3123 ft | 194 kts | 173° |
| 2026-05-07 11:46 | 40.81914 | 14.27128 | 3787 ft | 195 kts | 173° |
| 2026-05-07 11:46 | 40.80565 | 14.27318 | 4462 ft | 195 kts | 173° |
| 2026-05-07 11:46 | 40.79211 | 14.27502 | 5115 ft | 196 kts | 173° |
| 2026-05-07 11:47 | 40.77846 | 14.27686 | 5730 ft | 199 kts | 173° |
| 2026-05-07 11:47 | 40.76453 | 14.27874 | 6348 ft | 203 kts | 173° |
| 2026-05-07 11:47 | 40.75037 | 14.28068 | 7032 ft | 205 kts | 174° |
| 2026-05-07 11:47 | 40.73613 | 14.28271 | 7737 ft | 207 kts | 171° |
| 2026-05-07 11:48 | 40.72306 | 14.29042 | 8397 ft | 211 kts | 137° |
| 2026-05-07 11:48 | 40.71542 | 14.30713 | 8915 ft | 226 kts | 101° |
| 2026-05-07 11:48 | 40.71640 | 14.32854 | 9348 ft | 244 kts | 78° |
| 2026-05-07 11:48 | 40.71988 | 14.35042 | 10036 ft | 250 kts | 79° |
| 2026-05-07 11:49 | 40.72345 | 14.37311 | 10724 ft | 255 kts | 80° |
| 2026-05-07 11:49 | 40.72793 | 14.39627 | 11424 ft | 262 kts | 66° |
| 2026-05-07 11:49 | 40.73906 | 14.41492 | 12090 ft | 268 kts | 34° |
| 2026-05-07 11:49 | 40.75658 | 14.42432 | 12514 ft | 283 kts | 2° |
| 2026-05-07 11:50 | 40.77666 | 14.42171 | 12831 ft | 302 kts | 346° |
| 2026-05-07 11:50 | 40.79809 | 14.41621 | 13105 ft | 325 kts | 345° |
| 2026-05-07 11:50 | 40.82113 | 14.41013 | 13354 ft | 349 kts | 346° |
| 2026-05-07 11:50 | 40.84552 | 14.40374 | 13798 ft | 363 kts | 346° |
| 2026-05-07 11:51 | 40.87058 | 14.39736 | 14404 ft | 369 kts | 346° |
| 2026-05-07 11:51 | 40.89585 | 14.39108 | 15149 ft | 370 kts | 346° |
| 2026-05-07 11:51 | 40.92068 | 14.38239 | 15835 ft | 369 kts | 334° |
| 2026-05-07 11:51 | 40.94427 | 14.36900 | 16504 ft | 371 kts | 333° |
| 2026-05-07 11:52 | 40.96837 | 14.35620 | 17175 ft | 375 kts | 334° |
| 2026-05-07 11:52 | 40.99291 | 14.34389 | 17833 ft | 379 kts | 335° |
| 2026-05-07 11:52 | 41.01773 | 14.33165 | 18457 ft | 383 kts | 335° |
| 2026-05-07 11:52 | 41.04277 | 14.31923 | 19015 ft | 386 kts | 335° |
| 2026-05-07 11:53 | 41.06795 | 14.30653 | 19579 ft | 389 kts | 334° |
| 2026-05-07 11:53 | 41.09329 | 14.29354 | 20158 ft | 392 kts | 334° |
| 2026-05-07 11:53 | 41.11880 | 14.28034 | 20704 ft | 395 kts | 333° |
| 2026-05-07 11:53 | 41.14454 | 14.26694 | 21232 ft | 399 kts | 333° |
| 2026-05-07 11:54 | 41.17044 | 14.25340 | 21780 ft | 401 kts | 333° |
| 2026-05-07 11:54 | 41.19646 | 14.23976 | 22315 ft | 404 kts | 333° |
| 2026-05-07 11:54 | 41.22278 | 14.22599 | 22841 ft | 408 kts | 333° |
| 2026-05-07 11:54 | 41.24892 | 14.21235 | 23384 ft | 411 kts | 333° |
| 2026-05-07 11:55 | 41.27599 | 14.19825 | 23814 ft | 414 kts | 333° |
| 2026-05-07 11:55 | 41.30253 | 14.18442 | 24253 ft | 416 kts | 333° |
| 2026-05-07 11:55 | 41.32952 | 14.17034 | 24716 ft | 418 kts | 333° |
| 2026-05-07 11:55 | 41.35663 | 14.15618 | 25169 ft | 419 kts | 332° |
| 2026-05-07 11:56 | 41.38385 | 14.14197 | 25620 ft | 421 kts | 332° |
| 2026-05-07 11:56 | 41.41114 | 14.12773 | 26076 ft | 422 kts | 332° |
| 2026-05-07 11:56 | 41.43852 | 14.11343 | 26527 ft | 423 kts | 332° |
| 2026-05-07 11:56 | 41.46598 | 14.09907 | 26975 ft | 425 kts | 332° |
| 2026-05-07 11:57 | 41.49347 | 14.08463 | 27405 ft | 426 kts | 332° |
| 2026-05-07 11:57 | 41.52113 | 14.07012 | 27840 ft | 427 kts | 331° |
| 2026-05-07 11:57 | 41.54885 | 14.05555 | 28288 ft | 429 kts | 331° |
| 2026-05-07 11:57 | 41.57669 | 14.04089 | 28671 ft | 430 kts | 331° |
| 2026-05-07 11:58 | 41.60458 | 14.02619 | 29037 ft | 432 kts | 331° |
| 2026-05-07 11:58 | 41.63265 | 14.01137 | 29480 ft | 434 kts | 331° |
| 2026-05-07 11:58 | 41.66079 | 13.99651 | 29919 ft | 435 kts | 331° |
| 2026-05-07 11:58 | 41.68900 | 13.98165 | 30254 ft | 436 kts | 330° |
| 2026-05-07 11:59 | 41.71729 | 13.96674 | 30528 ft | 438 kts | 331° |
| 2026-05-07 11:59 | 41.74570 | 13.95172 | 30801 ft | 440 kts | 331° |
| 2026-05-07 11:59 | 41.77423 | 13.93661 | 31092 ft | 441 kts | 331° |
| 2026-05-07 11:59 | 41.80282 | 13.92143 | 31359 ft | 443 kts | 331° |
| 2026-05-07 12:00 | 41.83112 | 13.90636 | 31650 ft | 444 kts | 330° |
| 2026-05-07 12:00 | 41.85983 | 13.89108 | 32064 ft | 443 kts | 330° |
| 2026-05-07 12:00 | 41.88848 | 13.87588 | 32452 ft | 442 kts | 330° |
| 2026-05-07 12:00 | 41.91701 | 13.86076 | 32811 ft | 440 kts | 330° |
| 2026-05-07 12:01 | 41.94552 | 13.84564 | 33154 ft | 441 kts | 330° |
| 2026-05-07 12:01 | 41.97410 | 13.83043 | 33498 ft | 442 kts | 330° |
| 2026-05-07 12:01 | 42.00267 | 13.81520 | 33883 ft | 442 kts | 330° |
| 2026-05-07 12:01 | 42.03128 | 13.79993 | 34241 ft | 441 kts | 330° |
| 2026-05-07 12:02 | 42.05972 | 13.78470 | 34603 ft | 440 kts | 330° |
| 2026-05-07 12:02 | 42.08807 | 13.76950 | 34939 ft | 438 kts | 330° |
| 2026-05-07 12:02 | 42.11637 | 13.75433 | 35286 ft | 437 kts | 330° |
| 2026-05-07 12:02 | 42.14460 | 13.73918 | 35615 ft | 436 kts | 330° |
| 2026-05-07 12:03 | 42.17272 | 13.72409 | 35929 ft | 435 kts | 330° |
| 2026-05-07 12:03 | 42.20079 | 13.70900 | 36275 ft | 434 kts | 330° |
| 2026-05-07 12:03 | 42.22883 | 13.69387 | 36535 ft | 434 kts | 330° |
| 2026-05-07 12:03 | 42.25683 | 13.67872 | 36742 ft | 434 kts | 330° |
| 2026-05-07 12:04 | 42.28477 | 13.66360 | 37029 ft | 433 kts | 330° |
| 2026-05-07 12:04 | 42.31269 | 13.64850 | 37328 ft | 432 kts | 330° |
| 2026-05-07 12:04 | 42.34058 | 13.63345 | 37579 ft | 431 kts | 330° |
| 2026-05-07 12:04 | 42.36839 | 13.61846 | 37834 ft | 430 kts | 330° |
| 2026-05-07 12:05 | 42.39624 | 13.60345 | 37996 ft | 430 kts | 330° |
| 2026-05-07 12:05 | 42.45176 | 13.57346 | 38018 ft | 430 kts | 330° |
| 2026-05-07 12:06 | 42.50732 | 13.54325 | 38021 ft | 430 kts | 330° |
| 2026-05-07 12:06 | 42.56252 | 13.51322 | 38020 ft | 430 kts | 331° |
| 2026-05-07 12:07 | 42.61808 | 13.48299 | 38018 ft | 431 kts | 330° |
| 2026-05-07 12:07 | 42.67378 | 13.45250 | 38019 ft | 432 kts | 330° |
| 2026-05-07 12:08 | 42.72964 | 13.42189 | 38016 ft | 433 kts | 331° |
| 2026-05-07 12:08 | 42.78558 | 13.39130 | 38016 ft | 434 kts | 331° |
| 2026-05-07 12:09 | 42.84155 | 13.36058 | 38026 ft | 434 kts | 331° |
| 2026-05-07 12:09 | 42.89754 | 13.32987 | 38044 ft | 434 kts | 331° |
| 2026-05-07 12:10 | 42.95353 | 13.29904 | 38037 ft | 434 kts | 331° |
| 2026-05-07 12:10 | 43.00947 | 13.26810 | 38037 ft | 434 kts | 331° |
| 2026-05-07 12:11 | 43.06552 | 13.23704 | 38056 ft | 435 kts | 331° |
| 2026-05-07 12:11 | 43.12134 | 13.20613 | 38045 ft | 436 kts | 331° |
| 2026-05-07 12:12 | 43.17787 | 13.17471 | 38036 ft | 435 kts | 331° |
| 2026-05-07 12:12 | 43.23400 | 13.14342 | 38034 ft | 436 kts | 331° |
| 2026-05-07 12:13 | 43.28983 | 13.11226 | 38041 ft | 436 kts | 331° |
| 2026-05-07 12:13 | 43.34596 | 13.08086 | 38024 ft | 436 kts | 331° |
| 2026-05-07 12:14 | 43.40218 | 13.04933 | 38015 ft | 437 kts | 331° |
| 2026-05-07 12:14 | 43.45846 | 13.01778 | 38018 ft | 437 kts | 331° |
| 2026-05-07 12:15 | 43.51476 | 12.98620 | 38039 ft | 437 kts | 331° |
| 2026-05-07 12:15 | 43.57110 | 12.95447 | 38030 ft | 437 kts | 331° |
| 2026-05-07 12:16 | 43.62736 | 12.92261 | 38022 ft | 437 kts | 331° |
| 2026-05-07 12:16 | 43.68364 | 12.89073 | 38023 ft | 437 kts | 331° |
| 2026-05-07 12:17 | 43.73997 | 12.85879 | 38034 ft | 438 kts | 330° |
| 2026-05-07 12:17 | 43.79597 | 12.82701 | 38023 ft | 438 kts | 331° |
| 2026-05-07 12:18 | 43.85238 | 12.79491 | 38016 ft | 438 kts | 330° |
| 2026-05-07 12:18 | 43.90877 | 12.76274 | 38050 ft | 439 kts | 330° |
| 2026-05-07 12:19 | 43.96532 | 12.73051 | 38029 ft | 439 kts | 330° |
| 2026-05-07 12:19 | 44.02189 | 12.69810 | 38020 ft | 440 kts | 330° |
| 2026-05-07 12:20 | 44.07855 | 12.66550 | 38017 ft | 440 kts | 330° |
| 2026-05-07 12:20 | 44.13520 | 12.63289 | 38015 ft | 441 kts | 330° |
| 2026-05-07 12:21 | 44.19193 | 12.60023 | 38014 ft | 441 kts | 330° |
| 2026-05-07 12:21 | 44.24866 | 12.56751 | 38035 ft | 441 kts | 330° |
| 2026-05-07 12:22 | 44.30501 | 12.53487 | 38040 ft | 441 kts | 330° |
| 2026-05-07 12:22 | 44.36166 | 12.50199 | 38038 ft | 441 kts | 330° |
| 2026-05-07 12:23 | 44.41833 | 12.46904 | 38013 ft | 441 kts | 330° |
| 2026-05-07 12:23 | 44.47502 | 12.43610 | 38029 ft | 441 kts | 330° |
| 2026-05-07 12:24 | 44.53175 | 12.40300 | 38022 ft | 441 kts | 330° |
| 2026-05-07 12:24 | 44.58842 | 12.36971 | 38014 ft | 442 kts | 330° |
| 2026-05-07 12:25 | 44.64514 | 12.33641 | 38013 ft | 442 kts | 330° |
| 2026-05-07 12:25 | 44.70198 | 12.30319 | 38011 ft | 442 kts | 330° |
| 2026-05-07 12:26 | 44.75845 | 12.27006 | 38024 ft | 443 kts | 330° |
| 2026-05-07 12:26 | 44.81528 | 12.23646 | 38036 ft | 443 kts | 330° |
| 2026-05-07 12:27 | 44.87218 | 12.20269 | 38030 ft | 444 kts | 330° |
| 2026-05-07 12:27 | 44.92915 | 12.16893 | 38029 ft | 444 kts | 330° |
| 2026-05-07 12:28 | 44.98614 | 12.13511 | 38021 ft | 445 kts | 330° |
| 2026-05-07 12:28 | 45.04323 | 12.10121 | 38013 ft | 445 kts | 330° |
| 2026-05-07 12:29 | 45.10039 | 12.06713 | 38003 ft | 445 kts | 330° |
| 2026-05-07 12:29 | 45.15748 | 12.03299 | 38020 ft | 446 kts | 330° |
| 2026-05-07 12:30 | 45.21461 | 11.99875 | 38017 ft | 446 kts | 331° |
| 2026-05-07 12:30 | 45.27179 | 11.96440 | 38000 ft | 446 kts | 331° |
| 2026-05-07 12:31 | 45.32860 | 11.93026 | 37990 ft | 446 kts | 331° |
| 2026-05-07 12:31 | 45.38583 | 11.89578 | 37990 ft | 447 kts | 331° |
| 2026-05-07 12:32 | 45.44313 | 11.86123 | 37983 ft | 447 kts | 331° |
| 2026-05-07 12:32 | 45.50046 | 11.82656 | 37984 ft | 447 kts | 331° |
| 2026-05-07 12:33 | 45.57676 | 11.78030 | 38014 ft | 448 kts | 331° |
| 2026-05-07 12:33 | 45.63416 | 11.74531 | 38010 ft | 448 kts | 331° |
| 2026-05-07 12:34 | 45.69150 | 11.71034 | 37999 ft | 448 kts | 331° |
| 2026-05-07 12:34 | 45.74886 | 11.67517 | 38010 ft | 448 kts | 331° |
| 2026-05-07 12:35 | 45.80625 | 11.64001 | 38016 ft | 449 kts | 331° |
| 2026-05-07 12:35 | 45.86373 | 11.60476 | 38006 ft | 449 kts | 331° |
| 2026-05-07 12:36 | 45.92118 | 11.56938 | 38012 ft | 450 kts | 331° |
| 2026-05-07 12:36 | 45.97861 | 11.53386 | 38011 ft | 449 kts | 331° |
| 2026-05-07 12:37 | 46.03611 | 11.49824 | 38015 ft | 450 kts | 331° |
| 2026-05-07 12:37 | 46.09363 | 11.46259 | 38015 ft | 451 kts | 331° |
| 2026-05-07 12:38 | 46.15125 | 11.42685 | 38010 ft | 451 kts | 332° |
| 2026-05-07 12:38 | 46.20846 | 11.39133 | 38003 ft | 451 kts | 331° |
| 2026-05-07 12:39 | 46.26744 | 11.35968 | 37997 ft | 458 kts | 342° |
| 2026-05-07 12:39 | 46.33103 | 11.34660 | 38007 ft | 463 kts | 348° |
| 2026-05-07 12:40 | 46.39496 | 11.33502 | 38004 ft | 463 kts | 348° |
| 2026-05-07 12:40 | 46.45884 | 11.32319 | 37980 ft | 463 kts | 348° |
| 2026-05-07 12:41 | 46.52249 | 11.30994 | 37974 ft | 461 kts | 346° |
| 2026-05-07 12:41 | 46.58575 | 11.29476 | 37975 ft | 460 kts | 346° |
| 2026-05-07 12:42 | 46.64892 | 11.27939 | 37991 ft | 460 kts | 346° |
| 2026-05-07 12:42 | 46.71298 | 11.26424 | 37635 ft | 476 kts | 346° |
| 2026-05-07 12:43 | 46.74591 | 11.25661 | 37378 ft | 482 kts | 347° |
| 2026-05-07 12:43 | 46.77906 | 11.24899 | 37075 ft | 480 kts | 347° |
| 2026-05-07 12:43 | 46.81184 | 11.24152 | 36536 ft | 475 kts | 346° |
| 2026-05-07 12:43 | 46.84446 | 11.23402 | 35905 ft | 474 kts | 347° |
| 2026-05-07 12:44 | 46.87691 | 11.22649 | 35289 ft | 471 kts | 347° |
| 2026-05-07 12:44 | 46.90917 | 11.21896 | 34700 ft | 468 kts | 347° |
| 2026-05-07 12:44 | 46.94154 | 11.21251 | 33910 ft | 472 kts | 352° |
| 2026-05-07 12:44 | 46.97459 | 11.21254 | 33025 ft | 476 kts | 359° |
| 2026-05-07 12:45 | 47.00710 | 11.21475 | 32345 ft | 472 kts | 359° |
| 2026-05-07 12:45 | 47.03970 | 11.21702 | 31741 ft | 466 kts | 360° |
| 2026-05-07 12:45 | 47.07235 | 11.21929 | 31140 ft | 461 kts | 0° |
| 2026-05-07 12:45 | 47.10384 | 11.22145 | 30581 ft | 456 kts | 0° |
| 2026-05-07 12:46 | 47.13536 | 11.22359 | 30023 ft | 451 kts | 1° |
| 2026-05-07 12:46 | 47.16651 | 11.22567 | 29393 ft | 445 kts | 1° |
| 2026-05-07 12:46 | 47.19729 | 11.22771 | 28784 ft | 441 kts | 0° |
| 2026-05-07 12:46 | 47.22774 | 11.22975 | 28184 ft | 436 kts | 0° |
| 2026-05-07 12:47 | 47.25787 | 11.23175 | 27601 ft | 431 kts | 0° |
| 2026-05-07 12:47 | 47.28744 | 11.23373 | 27182 ft | 421 kts | 0° |
| 2026-05-07 12:47 | 47.31648 | 11.23568 | 26585 ft | 416 kts | 1° |
| 2026-05-07 12:47 | 47.34515 | 11.23762 | 26064 ft | 410 kts | 359° |
| 2026-05-07 12:48 | 47.37359 | 11.23952 | 25514 ft | 406 kts | 0° |
| 2026-05-07 12:48 | 47.40160 | 11.24139 | 25063 ft | 399 kts | 1° |
| 2026-05-07 12:48 | 47.42909 | 11.24327 | 24607 ft | 393 kts | 359° |
| 2026-05-07 12:48 | 47.45625 | 11.24515 | 24143 ft | 387 kts | 360° |
| 2026-05-07 12:49 | 47.48298 | 11.24702 | 23680 ft | 383 kts | 1° |
| 2026-05-07 12:49 | 47.50946 | 11.24886 | 23169 ft | 379 kts | 1° |
| 2026-05-07 12:49 | 47.53565 | 11.25069 | 22699 ft | 374 kts | 1° |
| 2026-05-07 12:49 | 47.56143 | 11.25221 | 22240 ft | 369 kts | 359° |
| 2026-05-07 12:50 | 47.58697 | 11.25264 | 21790 ft | 365 kts | 358° |
| 2026-05-07 12:50 | 47.61225 | 11.25240 | 21336 ft | 362 kts | 357° |
| 2026-05-07 12:50 | 47.63731 | 11.25191 | 20887 ft | 359 kts | 356° |
| 2026-05-07 12:50 | 47.66219 | 11.25139 | 20434 ft | 356 kts | 356° |
| 2026-05-07 12:51 | 47.68692 | 11.25099 | 20069 ft | 354 kts | 356° |
| 2026-05-07 12:51 | 47.71157 | 11.25070 | 19598 ft | 356 kts | 357° |
| 2026-05-07 12:51 | 47.73611 | 11.25359 | 19090 ft | 361 kts | 8° |
| 2026-05-07 12:51 | 47.76024 | 11.26399 | 18643 ft | 362 kts | 18° |
| 2026-05-07 12:52 | 47.78376 | 11.27715 | 18177 ft | 361 kts | 18° |
| 2026-05-07 12:52 | 47.80718 | 11.29024 | 17699 ft | 358 kts | 18° |
| 2026-05-07 12:52 | 47.83044 | 11.30321 | 17266 ft | 355 kts | 18° |
| 2026-05-07 12:52 | 47.85344 | 11.31608 | 16872 ft | 351 kts | 18° |
| 2026-05-07 12:53 | 47.87578 | 11.32921 | 16785 ft | 339 kts | 19° |
| 2026-05-07 12:53 | 47.89722 | 11.34239 | 16714 ft | 328 kts | 19° |
| 2026-05-07 12:53 | 47.91799 | 11.35539 | 16644 ft | 322 kts | 19° |
| 2026-05-07 12:53 | 47.93866 | 11.36836 | 16568 ft | 323 kts | 19° |
| 2026-05-07 12:54 | 47.95934 | 11.38130 | 16491 ft | 322 kts | 19° |
| 2026-05-07 12:54 | 47.98001 | 11.39420 | 16412 ft | 322 kts | 19° |
| 2026-05-07 12:54 | 48.00077 | 11.40710 | 16317 ft | 331 kts | 19° |
| 2026-05-07 12:54 | 48.02252 | 11.42050 | 15953 ft | 341 kts | 19° |
| 2026-05-07 12:55 | 48.04447 | 11.43407 | 15572 ft | 341 kts | 19° |
| 2026-05-07 12:55 | 48.06633 | 11.44767 | 15196 ft | 340 kts | 19° |
| 2026-05-07 12:55 | 48.08814 | 11.46126 | 14834 ft | 339 kts | 19° |
| 2026-05-07 12:55 | 48.10988 | 11.47481 | 14465 ft | 337 kts | 19° |
| 2026-05-07 12:56 | 48.13144 | 11.48825 | 14100 ft | 335 kts | 19° |
| 2026-05-07 12:56 | 48.15287 | 11.50164 | 13717 ft | 333 kts | 19° |
| 2026-05-07 12:56 | 48.17421 | 11.51502 | 13325 ft | 331 kts | 19° |
| 2026-05-07 12:56 | 48.19540 | 11.52832 | 12923 ft | 329 kts | 20° |
| 2026-05-07 12:57 | 48.21518 | 11.54565 | 12401 ft | 335 kts | 38° |
| 2026-05-07 12:57 | 48.23005 | 11.57295 | 11757 ft | 344 kts | 61° |
| 2026-05-07 12:57 | 48.23724 | 11.60729 | 11127 ft | 349 kts | 82° |
| 2026-05-07 12:57 | 48.24031 | 11.64354 | 10505 ft | 352 kts | 83° |
| 2026-05-07 12:58 | 48.24329 | 11.67943 | 10114 ft | 348 kts | 83° |
| 2026-05-07 12:58 | 48.24623 | 11.71472 | 10010 ft | 334 kts | 83° |
| 2026-05-07 12:58 | 48.24905 | 11.74835 | 10023 ft | 317 kts | 83° |
| 2026-05-07 12:58 | 48.25176 | 11.78071 | 10027 ft | 310 kts | 83° |
| 2026-05-07 12:59 | 48.25443 | 11.81276 | 10028 ft | 309 kts | 83° |
| 2026-05-07 12:59 | 48.25707 | 11.84474 | 9925 ft | 309 kts | 83° |
| 2026-05-07 12:59 | 48.25971 | 11.87662 | 9781 ft | 308 kts | 83° |
| 2026-05-07 12:59 | 48.26235 | 11.90845 | 9497 ft | 307 kts | 83° |
| 2026-05-07 13:00 | 48.26498 | 11.94018 | 9096 ft | 306 kts | 83° |
| 2026-05-07 13:00 | 48.26759 | 11.97175 | 8701 ft | 304 kts | 83° |
| 2026-05-07 13:00 | 48.27017 | 12.00308 | 8312 ft | 302 kts | 83° |
| 2026-05-07 13:00 | 48.27271 | 12.03419 | 7927 ft | 299 kts | 83° |
| 2026-05-07 13:01 | 48.27522 | 12.06508 | 7548 ft | 297 kts | 83° |
| 2026-05-07 13:01 | 48.27769 | 12.09574 | 7170 ft | 295 kts | 83° |
| 2026-05-07 13:01 | 48.28014 | 12.12627 | 6797 ft | 294 kts | 82° |
| 2026-05-07 13:01 | 48.28257 | 12.15674 | 6360 ft | 294 kts | 82° |
| 2026-05-07 13:02 | 48.28497 | 12.18715 | 6031 ft | 291 kts | 82° |
| 2026-05-07 13:02 | 48.28829 | 12.21700 | 5992 ft | 289 kts | 69° |
| 2026-05-07 13:02 | 48.29848 | 12.24229 | 5997 ft | 282 kts | 41° |
| 2026-05-07 13:02 | 48.31481 | 12.25754 | 5996 ft | 275 kts | 13° |
| 2026-05-07 13:03 | 48.33357 | 12.26045 | 5606 ft | 271 kts | 348° |
| 2026-05-07 13:03 | 48.35074 | 12.25049 | 5116 ft | 264 kts | 323° |
| 2026-05-07 13:03 | 48.36348 | 12.23180 | 4973 ft | 248 kts | 303° |
| 2026-05-07 13:03 | 48.37071 | 12.20953 | 4993 ft | 228 kts | 285° |
| 2026-05-07 13:04 | 48.37297 | 12.18695 | 4995 ft | 211 kts | 270° |
| 2026-05-07 13:04 | 48.37171 | 12.16567 | 5000 ft | 198 kts | 264° |
| 2026-05-07 13:04 | 48.37027 | 12.14586 | 5012 ft | 181 kts | 265° |
| 2026-05-07 13:04 | 48.36897 | 12.12800 | 5003 ft | 163 kts | 264° |
| 2026-05-07 13:05 | 48.36779 | 12.11185 | 4986 ft | 148 kts | 264° |
| 2026-05-07 13:05 | 48.36670 | 12.09700 | 4991 ft | 141 kts | 264° |
| 2026-05-07 13:05 | 48.36563 | 12.08248 | 4995 ft | 138 kts | 264° |
| 2026-05-07 13:05 | 48.36451 | 12.06729 | 4935 ft | 159 kts | 264° |
| 2026-05-07 13:06 | 48.36326 | 12.05039 | 4746 ft | 165 kts | 264° |
| 2026-05-07 13:06 | 48.36198 | 12.03321 | 4527 ft | 166 kts | 265° |
| 2026-05-07 13:06 | 48.36072 | 12.01616 | 4300 ft | 167 kts | 265° |
| 2026-05-07 13:06 | 48.35943 | 11.99894 | 4067 ft | 165 kts | 264° |
| 2026-05-07 13:07 | 48.35816 | 11.98188 | 3856 ft | 164 kts | 264° |
| 2026-05-07 13:07 | 48.35688 | 11.96477 | 3637 ft | 163 kts | 265° |
| 2026-05-07 13:07 | 48.35566 | 11.94858 | 3428 ft | 150 kts | 265° |
| 2026-05-07 13:07 | 48.35453 | 11.93354 | 3233 ft | 140 kts | 266° |
| 2026-05-07 13:08 | 48.35347 | 11.91940 | 3048 ft | 134 kts | 266° |
| 2026-05-07 13:08 | 48.35243 | 11.90558 | 2867 ft | 131 kts | 266° |
| 2026-05-07 13:08 | 48.35139 | 11.89180 | 2705 ft | 132 kts | 265° |
| 2026-05-07 13:08 | 48.35036 | 11.87816 | 2514 ft | 131 kts | 265° |
| 2026-05-07 13:09 | 48.34933 | 11.86458 | 2330 ft | 131 kts | 267° |
| 2026-05-07 13:09 | 48.34833 | 11.85100 | 2154 ft | 131 kts | 265° |
| 2026-05-07 13:09 | 48.34718 | 11.83731 | 1988 ft | 131 kts | 264° |
| 2026-05-07 13:09 | 48.34614 | 11.82382 | 1765 ft | 128 kts | 268° |
| 2026-05-07 13:10 | 48.34517 | 11.81041 | 1633 ft | 129 kts | 266° |
| 2026-05-07 13:10 | 48.34422 | 11.79720 | 1482 ft | 120 kts | 265° |
| 2026-05-07 13:10 | 48.34345 | 11.78712 | 1485 ft | 72 kts | 264° |
| 2026-05-07 13:10 | 48.34306 | 11.78164 | 1477 ft | 43 kts | 265° |
| 2026-05-07 13:11 | 48.34357 | 11.77840 | 1481 ft | 30 kts | 294° |
| 2026-05-07 13:11 | 48.34439 | 11.77567 | 1477 ft | 25 kts | 294° |
| 2026-05-07 13:11 | 48.34529 | 11.77434 | 1478 ft | 19 kts | 351° |
| 2026-05-07 13:11 | 48.34631 | 11.77473 | 1478 ft | 15 kts | 70° |
| 2026-05-07 13:12 | 48.34642 | 11.77621 | 1483 ft | 14 kts | 83° |
| 2026-05-07 13:12 | 48.34653 | 11.77772 | 1475 ft | 19 kts | 86° |
| 2026-05-07 13:12 | 48.34675 | 11.78051 | 1485 ft | 31 kts | 83° |
| 2026-05-07 13:12 | 48.34702 | 11.78383 | 1485 ft | 33 kts | 83° |
| 2026-05-07 13:13 | 48.34728 | 11.78733 | 1481 ft | 35 kts | 84° |
| 2026-05-07 13:13 | 48.34757 | 11.79100 | 1485 ft | 36 kts | 83° |
| 2026-05-07 13:13 | 48.34783 | 11.79448 | 1474 ft | 18 kts | 83° |
| 2026-05-07 13:13 | 48.34821 | 11.79562 | 1482 ft | 11 kts | 18° |
| 2026-05-07 13:14 | 48.34900 | 11.79547 | 1486 ft | 12 kts | 356° |
| 2026-05-07 13:14 | 48.34988 | 11.79535 | 1477 ft | 14 kts | 354° |
| 2026-05-07 13:14 | 48.35082 | 11.79551 | 1476 ft | 15 kts | 45° |
| 2026-05-07 13:14 | 48.35101 | 11.79710 | 1479 ft | 17 kts | 83° |
| 2026-05-07 13:15 | 48.35115 | 11.79890 | 1481 ft | 18 kts | 83° |
| 2026-05-07 13:15 | 48.35130 | 11.80087 | 1474 ft | 20 kts | 84° |
| 2026-05-07 13:15 | 48.35168 | 11.80196 | 1483 ft | 5 kts | 351° |
| 2026-05-07 13:15 | 48.35237 | 11.80182 | 1479 ft | 18 kts | 354° |
| 2026-05-07 13:16 | 48.35375 | 11.80157 | 1485 ft | 20 kts | 349° |
| 2026-05-07 13:16 | 48.35497 | 11.80124 | 1482 ft | 11 kts | 354° |
| 2026-05-07 13:16 | 48.35578 | 11.80112 | 1485 ft | 13 kts | 354° |
| 2026-05-07 13:16 | 48.35637 | 11.80053 | 1481 ft | 10 kts | 266° |
| 2026-05-07 13:17 | 48.35632 | 11.79978 | 1485 ft | 2 kts | 263° |
| 2026-05-07 13:17 | 48.35631 | 11.79976 | 1485 ft | 0 kts | 263° |